Time;durP1;ratioP1;P1;durP2;ratioP2;P2;SDS_P1;SDS_P2;PMS_P1;PMS_P2;Temp;Humidity;BMP_temperature;BMP_pressure;BME280_temperature;BME280_humidity;BME280_pressure;Samples;Min_cycle;Max_cycle;Signal;HPM_P1;HPM_P2
2023/12/20 00:00:11;;;;;;;4.13;3.38;;;9.70;99.90;;;;;;6182916;23;20036;-68
2023/12/20 00:02:57;;;;;;;4.85;3.42;;;9.70;99.90;;;;;;6181457;23;20005;-68
2023/12/20 00:05:42;;;;;;;4.40;3.47;;;9.70;99.90;;;;;;6182214;23;20454;-67
2023/12/20 00:08:28;;;;;;;5.05;3.65;;;9.70;99.90;;;;;;6181552;23;20424;-68
2023/12/20 00:11:14;;;;;;;4.32;2.90;;;9.70;99.90;;;;;;6182325;23;20060;-68
2023/12/20 00:14:00;;;;;;;4.55;3.33;;;9.70;99.90;;;;;;6182598;23;20088;-67
2023/12/20 00:16:46;;;;;;;4.22;3.05;;;9.70;99.90;;;;;;6183333;23;20021;-69
2023/12/20 00:19:32;;;;;;;5.15;3.30;;;9.70;99.90;;;;;;6160510;23;20047;-68
2023/12/20 00:22:18;;;;;;;4.60;3.75;;;9.60;99.90;;;;;;6182652;23;20013;-69
2023/12/20 00:25:04;;;;;;;4.63;3.28;;;9.70;99.90;;;;;;6183413;23;20098;-67
2023/12/20 00:27:50;;;;;;;5.10;3.22;;;9.70;99.90;;;;;;6160448;23;20087;-67
2023/12/20 00:30:36;;;;;;;3.90;3.00;;;9.70;99.90;;;;;;6183545;23;20009;-66
2023/12/20 00:33:22;;;;;;;4.13;2.97;;;9.70;99.90;;;;;;6182666;23;20033;-68
2023/12/20 00:36:08;;;;;;;3.47;2.92;;;9.70;99.90;;;;;;6180558;23;20075;-68
2023/12/20 00:38:54;;;;;;;4.18;3.00;;;9.70;99.90;;;;;;6178411;23;20009;-66
2023/12/20 00:41:40;;;;;;;3.47;2.80;;;9.60;99.90;;;;;;6180544;23;20024;-69
2023/12/20 00:44:26;;;;;;;4.45;3.03;;;9.60;99.90;;;;;;6183559;23;20088;-69
2023/12/20 00:47:13;;;;;;;4.10;3.17;;;9.70;99.90;;;;;;6180498;23;20083;-68
2023/12/20 00:49:59;;;;;;;4.30;3.30;;;9.70;99.90;;;;;;6179098;23;20020;-69
2023/12/20 00:52:45;;;;;;;4.10;3.55;;;9.70;99.90;;;;;;6182319;23;20015;-69
2023/12/20 00:55:31;;;;;;;4.18;3.25;;;9.70;99.90;;;;;;6181619;23;20067;-69
2023/12/20 00:58:17;;;;;;;3.97;3.05;;;9.70;99.90;;;;;;6182144;23;20447;-69
2023/12/20 01:01:03;;;;;;;3.17;2.65;;;9.70;99.90;;;;;;6183140;23;20024;-69
2023/12/20 01:03:51;;;;;;;2.67;2.35;;;9.70;99.90;;;;;;6183341;23;20036;-69
2023/12/20 01:06:37;;;;;;;3.85;2.60;;;9.70;99.90;;;;;;6180452;23;20430;-67
2023/12/20 01:09:26;;;;;;;3.78;2.85;;;9.70;99.90;;;;;;6157163;23;20145;-69
2023/12/20 01:12:12;;;;;;;4.32;3.08;;;9.70;99.90;;;;;;6180720;23;20017;-68
2023/12/20 01:14:58;;;;;;;3.67;2.75;;;9.70;99.90;;;;;;6182003;23;20339;-74
2023/12/20 01:17:44;;;;;;;4.20;2.80;;;9.70;99.90;;;;;;6179701;23;20467;-74
2023/12/20 01:20:30;;;;;;;2.83;2.47;;;9.70;99.90;;;;;;6181510;23;20103;-74
2023/12/20 01:23:16;;;;;;;3.30;2.65;;;9.70;99.90;;;;;;6179192;23;20048;-74
2023/12/20 01:26:02;;;;;;;4.90;2.70;;;9.60;99.90;;;;;;6174940;23;20005;-67
2023/12/20 01:28:48;;;;;;;3.30;2.65;;;9.60;99.90;;;;;;6180453;23;20032;-65
2023/12/20 01:31:34;;;;;;;3.38;2.80;;;9.70;99.90;;;;;;6182420;23;20324;-65
2023/12/20 01:34:20;;;;;;;3.72;2.80;;;9.60;99.90;;;;;;6183070;23;20013;-65
2023/12/20 01:37:06;;;;;;;4.32;2.78;;;9.60;99.90;;;;;;6181424;23;20055;-66
2023/12/20 01:39:52;;;;;;;3.67;2.88;;;9.60;99.90;;;;;;6182184;23;20139;-66
2023/12/20 01:42:38;;;;;;;3.45;2.47;;;9.60;99.90;;;;;;6181439;23;20100;-65
2023/12/20 01:45:24;;;;;;;3.60;2.60;;;9.60;99.90;;;;;;6183353;23;20020;-66
2023/12/20 01:48:10;;;;;;;3.22;2.60;;;9.60;99.90;;;;;;6180850;23;20013;-66
2023/12/20 01:50:57;;;;;;;3.45;2.40;;;9.60;99.90;;;;;;6180279;23;20055;-66
2023/12/20 01:53:44;;;;;;;3.10;2.17;;;9.60;99.90;;;;;;6180379;23;20441;-67
2023/12/20 01:56:31;;;;;;;3.58;2.30;;;9.60;99.90;;;;;;6180301;23;20104;-66
2023/12/20 01:59:20;;;;;;;2.88;2.22;;;9.60;99.90;;;;;;6181015;23;20140;-66
2023/12/20 02:02:07;;;;;;;3.20;2.58;;;9.70;99.90;;;;;;6160139;23;20047;-66
2023/12/20 02:04:53;;;;;;;3.92;2.25;;;9.60;99.90;;;;;;6181547;23;20025;-66
2023/12/20 02:07:39;;;;;;;3.95;2.60;;;9.60;99.90;;;;;;6181945;23;20047;-67
2023/12/20 02:10:25;;;;;;;3.35;2.28;;;9.60;99.90;;;;;;6180476;23;20059;-66
2023/12/20 02:13:11;;;;;;;3.72;2.75;;;9.60;99.90;;;;;;6180207;23;20008;-67
2023/12/20 02:15:58;;;;;;;3.63;3.10;;;9.60;99.90;;;;;;6180776;23;20224;-66
2023/12/20 02:18:44;;;;;;;3.40;2.58;;;9.70;99.90;;;;;;6181700;23;20009;-66
2023/12/20 02:21:34;;;;;;;3.45;2.38;;;9.60;99.90;;;;;;6180597;23;20017;-66
2023/12/20 02:24:20;;;;;;;3.00;2.35;;;9.60;99.90;;;;;;6179661;23;20016;-66
2023/12/20 02:27:07;;;;;;;3.30;1.98;;;9.60;99.90;;;;;;6180315;23;20009;-65
2023/12/20 02:29:53;;;;;;;3.28;2.47;;;9.60;99.90;;;;;;6208012;23;20040;-65
2023/12/20 02:32:39;;;;;;;3.00;2.42;;;9.60;99.90;;;;;;6182315;23;20013;-66
2023/12/20 02:35:25;;;;;;;3.72;2.72;;;9.60;99.90;;;;;;6178058;23;20043;-66
2023/12/20 02:38:11;;;;;;;3.58;2.55;;;9.70;99.90;;;;;;6182455;23;20021;-66
2023/12/20 02:40:57;;;;;;;3.50;2.53;;;9.70;99.90;;;;;;6181773;23;20049;-66
2023/12/20 02:43:44;;;;;;;3.13;2.38;;;9.70;99.90;;;;;;6180826;23;20474;-66
2023/12/20 02:46:29;;;;;;;3.03;2.30;;;9.70;99.90;;;;;;6180115;23;20021;-65
2023/12/20 02:49:15;;;;;;;2.92;2.25;;;9.70;99.90;;;;;;6182588;23;20005;-66
2023/12/20 02:52:01;;;;;;;3.75;2.92;;;9.80;99.90;;;;;;6180229;23;20013;-65
2023/12/20 02:54:47;;;;;;;4.82;2.97;;;9.70;99.90;;;;;;6179378;23;20088;-66
2023/12/20 02:57:36;;;;;;;3.78;2.88;;;9.70;99.90;;;;;;6183169;23;20435;-65
2023/12/20 03:00:22;;;;;;;4.15;3.13;;;9.60;99.90;;;;;;6181428;23;20013;-66
2023/12/20 03:03:07;;;;;;;4.80;3.75;;;9.60;99.90;;;;;;6181440;23;20016;-65
2023/12/20 03:05:53;;;;;;;3.90;2.80;;;9.70;99.90;;;;;;6181613;23;20032;-65
2023/12/20 03:08:40;;;;;;;4.15;3.00;;;9.60;99.90;;;;;;6182357;23;20016;-65
2023/12/20 03:11:27;;;;;;;4.20;3.08;;;9.70;99.90;;;;;;6179360;23;20016;-65
2023/12/20 03:14:14;;;;;;;4.10;3.25;;;9.60;99.90;;;;;;6180135;23;20015;-65
2023/12/20 03:16:59;;;;;;;5.10;3.03;;;9.60;99.90;;;;;;6179390;23;20052;-65
2023/12/20 03:19:45;;;;;;;5.38;2.80;;;9.60;99.90;;;;;;6182039;23;20084;-65
2023/12/20 03:22:31;;;;;;;3.85;2.90;;;9.50;99.90;;;;;;6180851;23;20019;-65
2023/12/20 03:25:17;;;;;;;5.07;4.35;;;9.50;99.90;;;;;;6182420;23;20013;-65
2023/12/20 03:28:03;;;;;;;5.80;3.40;;;9.50;99.90;;;;;;6179409;23;20163;-65
2023/12/20 03:30:49;;;;;;;6.10;3.28;;;9.50;99.90;;;;;;6178638;23;20048;-65
2023/12/20 03:33:35;;;;;;;6.90;3.35;;;9.50;99.90;;;;;;6182522;23;20013;-65
2023/12/20 03:36:21;;;;;;;7.38;2.67;;;9.40;99.90;;;;;;6182305;23;20100;-66
2023/12/20 03:39:07;;;;;;;5.25;2.53;;;9.40;99.90;;;;;;6179559;23;20005;-65
2023/12/20 03:41:53;;;;;;;5.57;2.40;;;9.40;99.90;;;;;;6181703;23;20013;-66
2023/12/20 03:44:42;;;;;;;5.30;2.17;;;9.40;99.90;;;;;;6180427;23;20237;-65
2023/12/20 03:47:28;;;;;;;10.02;2.42;;;9.40;99.90;;;;;;6177786;23;20009;-65
2023/12/20 03:50:14;;;;;;;5.25;2.50;;;9.40;99.90;;;;;;6181294;23;20011;-66
2023/12/20 03:53:00;;;;;;;5.40;2.30;;;9.40;99.90;;;;;;6183580;23;20019;-65
2023/12/20 03:55:46;;;;;;;4.82;2.40;;;9.30;99.90;;;;;;6180212;23;20104;-66
2023/12/20 03:58:32;;;;;;;4.40;2.30;;;9.30;99.90;;;;;;6180622;23;20012;-65
2023/12/20 04:01:18;;;;;;;4.78;2.08;;;9.20;99.90;;;;;;6180185;23;20013;-66
2023/12/20 04:04:03;;;;;;;6.47;2.33;;;9.30;99.90;;;;;;6181851;23;20088;-65
2023/12/20 04:06:49;;;;;;;5.30;1.98;;;9.20;99.90;;;;;;6182801;23;20024;-66
2023/12/20 04:09:35;;;;;;;7.38;3.17;;;9.20;99.90;;;;;;6182857;23;20036;-65
2023/12/20 04:12:21;;;;;;;5.97;2.50;;;9.20;99.90;;;;;;6161064;23;20346;-65
2023/12/20 04:15:09;;;;;;;5.80;2.30;;;9.20;99.90;;;;;;6182061;23;20011;-66
2023/12/20 04:17:55;;;;;;;5.05;2.50;;;9.20;99.90;;;;;;6159741;23;20056;-65
2023/12/20 04:20:41;;;;;;;6.55;1.98;;;9.10;99.90;;;;;;6182098;23;20467;-65
2023/12/20 04:23:27;;;;;;;5.80;2.03;;;9.10;99.90;;;;;;6182169;23;20324;-66
2023/12/20 04:26:13;;;;;;;7.32;1.98;;;9.10;99.90;;;;;;6182317;23;20012;-66
2023/12/20 04:28:59;;;;;;;5.13;1.90;;;9.10;99.90;;;;;;6183184;23;20017;-66
2023/12/20 04:31:45;;;;;;;9.07;2.75;;;9.10;99.90;;;;;;6161374;23;20486;-67
2023/12/20 04:34:31;;;;;;;7.25;1.88;;;9.10;99.90;;;;;;6182570;23;20008;-66
2023/12/20 04:37:17;;;;;;;6.93;2.38;;;9.10;99.90;;;;;;6181713;23;20103;-66
2023/12/20 04:40:05;;;;;;;9.23;3.00;;;9.10;99.90;;;;;;6178073;23;20021;-66
2023/12/20 04:42:51;;;;;;;8.27;2.35;;;9.00;99.90;;;;;;6181790;23;20016;-67
2023/12/20 04:45:37;;;;;;;9.48;2.95;;;9.00;99.90;;;;;;6162372;23;20097;-67
2023/12/20 04:48:23;;;;;;;7.80;3.55;;;9.00;99.90;;;;;;6182247;23;20005;-67
2023/12/20 04:51:09;;;;;;;6.75;2.78;;;8.90;99.90;;;;;;6181849;23;20009;-67
2023/12/20 04:53:54;;;;;;;8.63;3.28;;;8.90;99.90;;;;;;6182722;23;20008;-66
2023/12/20 04:56:41;;;;;;;5.70;2.58;;;8.90;99.90;;;;;;6181946;23;20025;-66
2023/12/20 04:59:27;;;;;;;6.47;2.28;;;8.80;99.90;;;;;;6180151;23;20016;-66
2023/12/20 05:02:13;;;;;;;5.20;2.42;;;8.80;99.90;;;;;;6182386;23;20386;-70
2023/12/20 05:04:59;;;;;;;8.77;3.22;;;8.70;99.90;;;;;;6183253;23;20455;-71
2023/12/20 05:07:45;;;;;;;6.13;2.78;;;8.70;99.90;;;;;;6183174;23;20465;-71
2023/12/20 05:10:31;;;;;;;3.70;2.03;;;8.70;99.90;;;;;;6183183;23;20352;-71
2023/12/20 05:13:17;;;;;;;6.75;2.47;;;8.70;99.90;;;;;;6182732;23;20009;-70
2023/12/20 05:16:03;;;;;;;6.18;2.70;;;8.70;99.90;;;;;;6183168;23;20418;-70
2023/12/20 05:18:50;;;;;;;4.38;2.28;;;8.70;99.90;;;;;;6179328;23;20009;-70
2023/12/20 05:21:36;;;;;;;6.85;3.22;;;8.80;99.90;;;;;;6178426;23;20434;-70
2023/12/20 05:24:22;;;;;;;6.20;2.20;;;8.70;99.90;;;;;;6183463;23;20047;-70
2023/12/20 05:27:07;;;;;;;9.07;2.03;;;8.70;99.90;;;;;;6179915;23;20013;-70
2023/12/20 05:29:57;;;;;;;3.83;1.95;;;8.70;99.90;;;;;;6181004;23;20013;-70
2023/12/20 05:32:43;;;;;;;10.32;3.47;;;8.70;99.90;;;;;;6180766;23;20339;-70
2023/12/20 05:35:29;;;;;;;7.55;2.70;;;8.60;99.90;;;;;;6182962;23;20098;-70
2023/12/20 05:38:15;;;;;;;6.07;2.55;;;8.60;99.90;;;;;;6179519;23;20155;-70
2023/12/20 05:41:01;;;;;;;7.25;2.30;;;8.50;99.90;;;;;;6180803;23;20013;-69
2023/12/20 05:43:47;;;;;;;4.80;2.67;;;8.60;99.90;;;;;;6190397;23;20008;-69
2023/12/20 05:46:32;;;;;;;6.38;2.22;;;8.50;99.90;;;;;;6206068;23;20075;-69
2023/12/20 05:49:18;;;;;;;7.03;2.22;;;8.40;99.90;;;;;;6194309;23;20028;-69
2023/12/20 05:52:05;;;;;;;4.63;2.70;;;8.40;99.90;;;;;;6189855;23;20013;-70
2023/12/20 05:54:50;;;;;;;6.22;2.60;;;8.30;99.90;;;;;;6160805;23;20009;-70
2023/12/20 05:57:36;;;;;;;8.13;2.45;;;8.30;99.90;;;;;;6180966;23;20067;-70
2023/12/20 06:00:22;;;;;;;6.32;2.00;;;8.20;99.90;;;;;;6182603;23;20041;-70
2023/12/20 06:03:08;;;;;;;4.25;2.20;;;8.20;99.90;;;;;;6179125;23;20004;-70
2023/12/20 06:05:54;;;;;;;5.93;2.10;;;8.10;99.90;;;;;;6182780;23;20028;-70
2023/12/20 06:08:41;;;;;;;8.82;2.55;;;8.10;99.90;;;;;;6183122;23;20088;-70
2023/12/20 06:11:27;;;;;;;9.80;2.60;;;8.10;99.90;;;;;;6181644;23;20024;-70
2023/12/20 06:14:13;;;;;;;7.28;2.15;;;8.10;99.90;;;;;;6178903;23;20256;-70
2023/12/20 06:16:59;;;;;;;7.13;2.63;;;8.10;99.90;;;;;;6182027;23;20067;-70
2023/12/20 06:19:48;;;;;;;7.45;2.35;;;8.00;99.90;;;;;;6181809;23;20088;-71
2023/12/20 06:22:35;;;;;;;4.50;2.13;;;8.00;99.90;;;;;;6179440;23;20431;-69
2023/12/20 06:25:20;;;;;;;10.00;3.60;;;8.00;99.90;;;;;;6161089;23;20120;-69
2023/12/20 06:28:06;;;;;;;6.07;2.22;;;8.00;99.90;;;;;;6183157;23;20013;-70
2023/12/20 06:30:54;;;;;;;7.30;3.10;;;8.00;99.90;;;;;;6182832;23;20056;-69
2023/12/20 06:33:42;;;;;;;10.02;2.95;;;8.00;99.90;;;;;;6178796;23;20103;-70
2023/12/20 06:36:28;;;;;;;9.07;2.45;;;8.10;99.90;;;;;;6181662;23;20534;-69
2023/12/20 06:39:14;;;;;;;4.88;2.53;;;8.10;99.90;;;;;;6181823;23;20092;-69
2023/12/20 06:42:00;;;;;;;5.90;2.50;;;8.00;99.90;;;;;;6179590;23;20019;-71
2023/12/20 06:44:46;;;;;;;8.57;2.95;;;8.00;99.90;;;;;;6182644;23;20005;-70
2023/12/20 06:47:32;;;;;;;7.25;2.97;;;8.10;99.90;;;;;;6179744;23;20009;-69
2023/12/20 06:50:18;;;;;;;7.00;2.50;;;8.00;99.90;;;;;;6183284;23;20338;-70
2023/12/20 06:53:06;;;;;;;5.25;2.25;;;8.10;99.90;;;;;;6181638;23;20510;-70
2023/12/20 06:55:52;;;;;;;8.60;2.95;;;8.00;99.90;;;;;;6181233;23;20021;-70
2023/12/20 06:58:38;;;;;;;6.07;2.33;;;8.10;99.90;;;;;;6181628;23;20015;-70
2023/12/20 07:01:24;;;;;;;6.03;2.53;;;8.00;99.90;;;;;;6181669;23;20016;-70
2023/12/20 07:04:10;;;;;;;5.68;2.92;;;8.10;99.90;;;;;;6180726;23;20588;-70
2023/12/20 07:06:59;;;;;;;5.38;2.33;;;8.10;99.90;;;;;;6180777;23;20009;-70
2023/12/20 07:09:45;;;;;;;6.65;2.28;;;8.10;99.90;;;;;;6160223;23;20009;-70
2023/12/20 07:12:31;;;;;;;4.65;2.10;;;8.10;99.90;;;;;;6182172;23;20097;-71
2023/12/20 07:15:18;;;;;;;6.13;2.38;;;8.00;99.90;;;;;;6159263;23;20010;-71
2023/12/20 07:18:05;;;;;;;8.32;2.20;;;8.10;99.90;;;;;;6178737;23;20514;-70
2023/12/20 07:20:51;;;;;;;5.80;2.45;;;8.10;99.90;;;;;;6178158;23;20471;-70
2023/12/20 07:23:37;;;;;;;5.38;2.50;;;8.20;99.90;;;;;;6182726;23;20461;-70
2023/12/20 07:26:23;;;;;;;5.40;1.98;;;8.20;99.90;;;;;;6182712;23;20052;-70
2023/12/20 07:29:09;;;;;;;13.85;4.05;;;8.20;99.90;;;;;;6181454;23;20013;-70
2023/12/20 07:31:55;;;;;;;5.90;3.05;;;8.20;99.90;;;;;;6183373;23;20009;-70
2023/12/20 07:34:41;;;;;;;8.23;2.50;;;8.20;99.90;;;;;;6160247;23;20013;-70
2023/12/20 07:37:27;;;;;;;6.35;2.63;;;8.30;99.90;;;;;;6178569;23;20026;-70
2023/12/20 07:40:17;;;;;;;6.28;2.30;;;8.20;99.90;;;;;;6183597;23;20012;-72
2023/12/20 07:43:03;;;;;;;8.82;2.22;;;8.20;99.90;;;;;;6162347;23;20078;-69
2023/12/20 07:45:49;;;;;;;4.50;2.40;;;8.30;99.90;;;;;;6180646;23;20013;-70
2023/12/20 07:48:35;;;;;;;13.00;2.72;;;8.20;99.90;;;;;;6183531;23;20013;-70
2023/12/20 07:51:21;;;;;;;12.40;3.85;;;8.30;99.90;;;;;;6180066;23;20100;-68
2023/12/20 07:54:08;;;;;;;11.43;2.97;;;8.30;99.90;;;;;;6183397;23;20404;-69
2023/12/20 07:56:54;;;;;;;6.18;2.65;;;8.30;99.90;;;;;;6165821;23;20431;-70
2023/12/20 07:59:39;;;;;;;5.72;2.03;;;8.30;99.90;;;;;;6184017;23;20443;-66
2023/12/20 08:02:25;;;;;;;6.90;1.92;;;8.30;99.90;;;;;;6182882;23;20009;-70
2023/12/20 08:05:11;;;;;;;6.68;2.95;;;8.40;99.90;;;;;;6183011;23;20024;-69
2023/12/20 08:07:57;;;;;;;6.57;2.05;;;8.40;99.90;;;;;;6179516;23;20379;-67
2023/12/20 08:10:43;;;;;;;5.38;2.00;;;8.30;99.90;;;;;;6162401;23;20001;-67
2023/12/20 08:13:29;;;;;;;6.13;2.33;;;8.40;99.90;;;;;;6184621;23;20035;-68
2023/12/20 08:16:17;;;;;;;7.70;2.08;;;8.40;99.90;;;;;;6158093;23;20398;-67
2023/12/20 08:19:03;;;;;;;4.78;2.15;;;8.40;99.90;;;;;;6180162;23;20020;-68
2023/12/20 08:21:49;;;;;;;6.30;2.30;;;8.40;99.90;;;;;;6181125;23;20016;-68
2023/12/20 08:24:35;;;;;;;4.63;1.95;;;8.50;99.90;;;;;;6183831;23;20092;-68
2023/12/20 08:27:21;;;;;;;4.72;2.03;;;8.50;99.90;;;;;;6181556;23;20023;-68
2023/12/20 08:30:09;;;;;;;6.72;2.25;;;8.40;99.90;;;;;;6178045;23;20013;-69
2023/12/20 08:32:55;;;;;;;4.35;2.00;;;8.40;99.90;;;;;;6181344;23;20033;-68
2023/12/20 08:35:41;;;;;;;5.65;2.42;;;8.50;99.90;;;;;;6183287;23;20025;-67
2023/12/20 08:38:26;;;;;;;7.72;2.42;;;8.50;99.90;;;;;;6183137;23;20027;-68
2023/12/20 08:41:12;;;;;;;9.90;2.50;;;8.50;99.90;;;;;;6181907;23;20063;-69
2023/12/20 08:43:58;;;;;;;8.23;2.15;;;8.50;99.90;;;;;;6183616;23;20067;-68
2023/12/20 08:46:44;;;;;;;10.88;2.83;;;8.50;99.90;;;;;;6159264;23;20064;-68
2023/12/20 08:49:31;;;;;;;4.57;1.73;;;8.60;99.90;;;;;;6182868;23;20509;-69
2023/12/20 08:52:17;;;;;;;6.80;2.97;;;8.50;99.90;;;;;;6179807;23;20023;-68
2023/12/20 08:55:03;;;;;;;9.35;2.15;;;8.60;99.90;;;;;;6186361;23;20013;-67
2023/12/20 08:57:50;;;;;;;5.53;2.35;;;8.60;99.90;;;;;;6207784;23;20044;-67
2023/12/20 09:00:36;;;;;;;7.45;2.72;;;8.70;99.90;;;;;;6196447;23;20072;-67
2023/12/20 09:03:22;;;;;;;7.10;1.85;;;8.70;99.90;;;;;;6163247;23;20013;-69
2023/12/20 09:06:08;;;;;;;5.05;1.98;;;8.60;99.90;;;;;;6186423;23;20013;-69
2023/12/20 09:08:54;;;;;;;6.70;2.28;;;8.70;99.90;;;;;;6183011;23;20044;-69
2023/12/20 09:11:40;;;;;;;6.75;2.15;;;8.70;99.90;;;;;;6183367;23;20028;-69
2023/12/20 09:14:26;;;;;;;7.88;2.38;;;8.70;99.90;;;;;;6181272;23;20013;-69
2023/12/20 09:17:12;;;;;;;6.78;3.08;;;8.80;99.90;;;;;;6183275;23;20028;-68
2023/12/20 09:19:59;;;;;;;8.90;3.70;;;8.80;99.90;;;;;;6181708;23;20013;-70
2023/12/20 09:22:45;;;;;;;6.13;2.45;;;8.80;99.90;;;;;;6178437;23;20017;-70
2023/12/20 09:25:31;;;;;;;7.85;2.67;;;8.90;99.90;;;;;;6180008;23;20092;-70
2023/12/20 09:28:17;;;;;;;4.95;1.95;;;8.90;99.90;;;;;;6179626;23;20036;-69
2023/12/20 09:31:05;;;;;;;12.07;2.75;;;8.90;99.90;;;;;;6181254;23;20024;-69
2023/12/20 09:33:51;;;;;;;7.10;2.30;;;8.90;99.90;;;;;;6179069;23;20009;-71
2023/12/20 09:36:38;;;;;;;8.10;2.42;;;9.00;99.90;;;;;;6180997;23;20413;-70
2023/12/20 09:39:24;;;;;;;9.18;2.10;;;9.00;99.90;;;;;;6180467;23;20071;-70
2023/12/20 09:42:15;;;;;;;10.50;2.63;;;9.00;99.90;;;;;;6181089;23;20430;-69
2023/12/20 09:45:03;;;;;;;7.28;2.83;;;9.00;99.90;;;;;;6180467;23;20036;-69
2023/12/20 09:47:57;;;;;;;8.57;2.03;;;9.10;99.90;;;;;;6177795;23;20013;-68
2023/12/20 09:50:44;;;;;;;9.82;2.53;;;9.10;99.90;;;;;;6178900;23;20092;-69
2023/12/20 09:53:33;;;;;;;6.47;2.20;;;9.10;99.90;;;;;;6176658;23;20091;-69
2023/12/20 09:56:19;;;;;;;9.07;3.20;;;9.10;99.90;;;;;;6178961;23;20124;-68
2023/12/20 09:59:05;;;;;;;4.22;2.15;;;9.10;99.90;;;;;;6181917;23;20088;-65
2023/12/20 10:01:55;;;;;;;4.82;2.33;;;9.20;99.90;;;;;;6178038;23;20013;-65
2023/12/20 10:04:46;;;;;;;7.45;2.40;;;9.20;99.90;;;;;;6181642;23;20020;-65
2023/12/20 10:07:32;;;;;;;8.45;2.65;;;9.10;99.90;;;;;;6178679;23;20009;-65
2023/12/20 10:10:18;;;;;;;5.88;2.03;;;9.20;99.90;;;;;;6179800;23;20016;-65
2023/12/20 10:13:09;;;;;;;4.90;2.28;;;9.20;99.90;;;;;;6182935;23;20020;-66
2023/12/20 10:15:56;;;;;;;6.38;2.10;;;9.20;99.90;;;;;;6180768;23;20820;-64
2023/12/20 10:18:42;;;;;;;5.63;2.42;;;9.20;99.90;;;;;;6180216;23;20013;-64
2023/12/20 10:21:28;;;;;;;7.03;2.53;;;9.20;99.90;;;;;;6181952;23;20020;-65
2023/12/20 10:24:17;;;;;;;9.95;3.15;;;9.20;99.90;;;;;;6182631;23;20010;-65
2023/12/20 10:27:05;;;;;;;6.68;2.60;;;9.20;99.90;;;;;;6179005;23;20017;-66
2023/12/20 10:29:51;;;;;;;8.93;2.58;;;9.20;99.90;;;;;;6179099;23;20051;-65
2023/12/20 10:32:37;;;;;;;9.80;3.13;;;9.20;99.90;;;;;;6183294;23;20013;-66
2023/12/20 10:35:23;;;;;;;6.82;2.65;;;9.20;99.90;;;;;;6180000;23;20390;-66
2023/12/20 10:38:11;;;;;;;9.27;2.60;;;9.20;99.90;;;;;;6181978;23;20392;-66
2023/12/20 10:41:01;;;;;;;6.90;2.20;;;9.20;99.90;;;;;;6179901;23;20032;-66
2023/12/20 10:43:47;;;;;;;5.28;2.78;;;9.20;99.90;;;;;;6178569;23;20071;-65
2023/12/20 10:46:34;;;;;;;8.30;2.45;;;9.20;99.90;;;;;;6181394;23;20009;-65
2023/12/20 10:49:21;;;;;;;11.25;3.58;;;9.20;99.90;;;;;;6178123;23;20092;-66
2023/12/20 10:52:09;;;;;;;8.25;2.78;;;9.20;99.90;;;;;;6178902;23;20009;-66
2023/12/20 10:54:54;;;;;;;10.38;2.38;;;9.20;99.90;;;;;;6181696;23;20012;-65
2023/12/20 10:57:42;;;;;;;9.50;2.92;;;9.30;99.90;;;;;;6181801;23;20422;-65
2023/12/20 11:00:30;;;;;;;4.93;3.03;;;9.30;99.90;;;;;;6178311;23;20096;-65
2023/12/20 11:03:18;;;;;;;8.55;2.50;;;9.30;99.90;;;;;;6179094;23;20059;-66
2023/12/20 11:06:19;;;;;;;7.93;3.38;;;9.30;99.90;;;;;;6183026;23;20451;-66
2023/12/20 11:09:22;;;;;;;10.98;3.17;;;9.30;99.90;;;;;;6181441;23;20027;-66
2023/12/20 11:12:25;;;;;;;7.72;2.33;;;9.30;99.90;;;;;;6158178;23;20005;-66
2023/12/20 11:15:12;;;;;;;9.85;2.83;;;9.30;99.90;;;;;;6180051;23;20446;-66
2023/12/20 11:17:59;;;;;;;5.65;2.35;;;9.40;99.90;;;;;;6179038;23;20021;-66
2023/12/20 11:20:45;;;;;;;8.13;2.80;;;9.40;99.90;;;;;;6182420;23;20063;-66
2023/12/20 11:23:34;;;;;;;8.15;3.25;;;9.30;99.90;;;;;;6179611;23;20109;-66
2023/12/20 11:26:27;;;;;;;6.90;2.85;;;9.40;99.90;;;;;;6161797;23;20349;-66
2023/12/20 11:29:36;;;;;;;7.68;2.88;;;9.30;99.90;;;;;;6182165;23;20009;-66
2023/12/20 11:32:25;;;;;;;9.63;3.30;;;9.40;99.90;;;;;;6176492;23;20009;-66
2023/12/20 11:35:11;;;;;;;7.05;2.20;;;9.30;99.90;;;;;;6178669;23;20036;-67
2023/12/20 11:37:58;;;;;;;5.85;2.42;;;9.40;99.90;;;;;;6181523;23;20064;-67
2023/12/20 11:40:44;;;;;;;8.23;2.80;;;9.30;99.90;;;;;;6181455;23;20067;-66
2023/12/20 11:43:36;;;;;;;6.53;2.63;;;9.40;99.90;;;;;;6179685;23;20023;-66
2023/12/20 11:46:23;;;;;;;8.38;2.65;;;9.30;99.90;;;;;;6179418;23;20499;-66
2023/12/20 11:49:09;;;;;;;8.35;2.72;;;9.40;99.90;;;;;;6180797;23;20332;-66
2023/12/20 11:51:55;;;;;;;7.25;3.03;;;9.30;99.90;;;;;;6180867;23;20001;-66
2023/12/20 11:54:41;;;;;;;7.93;2.45;;;9.40;99.90;;;;;;6179279;23;20570;-66
2023/12/20 11:57:27;;;;;;;4.63;2.10;;;9.40;99.90;;;;;;6182679;23;20405;-66
2023/12/20 12:00:14;;;;;;;8.90;3.50;;;9.30;99.90;;;;;;6181868;23;20355;-66
2023/12/20 12:03:01;;;;;;;6.40;2.67;;;9.30;99.90;;;;;;6178949;23;20051;-65
2023/12/20 12:05:48;;;;;;;9.05;3.50;;;9.30;99.90;;;;;;6178395;23;20032;-66
2023/12/20 12:08:35;;;;;;;4.65;2.05;;;9.30;99.90;;;;;;6165080;23;20071;-65
2023/12/20 12:11:22;;;;;;;9.48;2.70;;;9.30;99.90;;;;;;6205751;23;20009;-64
2023/12/20 12:14:08;;;;;;;6.85;2.17;;;9.30;99.90;;;;;;6190252;23;20009;-65
2023/12/20 12:16:54;;;;;;;4.38;2.42;;;9.30;99.90;;;;;;6183117;23;20021;-66
2023/12/20 12:19:41;;;;;;;6.40;2.45;;;9.40;99.90;;;;;;6180538;23;20446;-65
2023/12/20 12:22:27;;;;;;;6.70;2.78;;;9.40;99.90;;;;;;6181358;23;20017;-65
2023/12/20 12:25:14;;;;;;;6.18;2.63;;;9.40;99.90;;;;;;6182674;23;20013;-65
2023/12/20 12:28:00;;;;;;;7.45;2.47;;;9.40;99.90;;;;;;6179719;23;20013;-65
2023/12/20 12:30:59;;;;;;;5.05;2.47;;;9.40;99.90;;;;;;6178400;23;20407;-66
2023/12/20 12:33:46;;;;;;;7.90;2.72;;;9.40;99.90;;;;;;6181919;23;20020;-66
2023/12/20 12:36:32;;;;;;;7.90;2.80;;;9.40;99.90;;;;;;6183927;23;20017;-66
2023/12/20 12:39:18;;;;;;;8.32;2.42;;;9.40;99.90;;;;;;6181751;23;20343;-66
2023/12/20 12:42:04;;;;;;;7.00;2.63;;;9.30;99.90;;;;;;6181434;23;20016;-66
2023/12/20 12:44:50;;;;;;;7.40;3.10;;;9.30;99.90;;;;;;6182212;23;20013;-66
2023/12/20 12:47:37;;;;;;;5.90;2.60;;;9.30;99.90;;;;;;6180108;23;20028;-66
2023/12/20 12:50:23;;;;;;;5.63;2.33;;;9.20;99.90;;;;;;6158693;23;20390;-66
2023/12/20 12:53:08;;;;;;;8.50;2.78;;;9.20;99.90;;;;;;6181811;23;20067;-67
2023/12/20 12:55:55;;;;;;;8.50;1.95;;;9.20;99.90;;;;;;6161174;23;20067;-67
2023/12/20 12:58:41;;;;;;;5.88;2.92;;;9.20;99.90;;;;;;6180071;23;20088;-68
2023/12/20 13:01:27;;;;;;;6.38;3.22;;;9.20;99.90;;;;;;6159232;23;20005;-67
2023/12/20 13:04:13;;;;;;;7.60;2.80;;;9.20;99.90;;;;;;6177463;23;20509;-66
2023/12/20 13:06:59;;;;;;;7.00;2.25;;;9.20;99.90;;;;;;6177465;23;20013;-66
2023/12/20 13:09:45;;;;;;;6.72;2.88;;;9.10;99.90;;;;;;6176786;23;20048;-66
2023/12/20 13:12:31;;;;;;;7.43;2.50;;;9.10;99.90;;;;;;6181408;23;20043;-67
2023/12/20 13:15:18;;;;;;;9.57;3.20;;;9.10;99.90;;;;;;6172679;23;20013;-67
2023/12/20 13:18:05;;;;;;;7.80;2.50;;;9.10;99.90;;;;;;6157820;23;20461;-66
2023/12/20 13:20:51;;;;;;;6.50;3.08;;;9.00;99.90;;;;;;6180240;23;20016;-67
2023/12/20 13:23:38;;;;;;;5.32;2.80;;;9.00;99.90;;;;;;6182765;23;20036;-66
2023/12/20 13:26:24;;;;;;;9.02;3.50;;;9.00;99.90;;;;;;6179667;23;20071;-66
2023/12/20 13:29:10;;;;;;;9.43;3.22;;;8.90;99.90;;;;;;6179412;23;20092;-66
2023/12/20 13:31:56;;;;;;;4.97;2.35;;;8.80;99.90;;;;;;6169831;23;20020;-66
2023/12/20 13:34:42;;;;;;;5.90;2.40;;;8.70;99.90;;;;;;6180561;23;20009;-66
2023/12/20 13:37:29;;;;;;;2.60;1.65;;;8.60;99.90;;;;;;6182126;23;20059;-67
2023/12/20 13:40:15;;;;;;;7.22;1.98;;;8.50;99.90;;;;;;6178671;23;20017;-67
2023/12/20 13:43:02;;;;;;;4.07;1.67;;;8.50;99.90;;;;;;6181435;23;20017;-66
2023/12/20 13:45:48;;;;;;;2.72;1.20;;;8.40;99.90;;;;;;6177611;23;20086;-66
2023/12/20 13:48:34;;;;;;;2.88;1.40;;;8.40;99.90;;;;;;6176496;23;20099;-66
2023/12/20 13:51:20;;;;;;;3.63;1.42;;;8.40;99.90;;;;;;6179979;23;20012;-66
2023/12/20 13:54:06;;;;;;;2.38;1.27;;;8.40;99.90;;;;;;6183007;23;20017;-66
2023/12/20 13:56:52;;;;;;;3.80;1.52;;;8.30;99.90;;;;;;6180460;23;20025;-67
2023/12/20 13:59:38;;;;;;;1.80;1.35;;;8.30;99.90;;;;;;6182087;23;20009;-67
2023/12/20 14:02:26;;;;;;;5.68;2.00;;;8.20;99.90;;;;;;6182322;23;20430;-67
2023/12/20 14:05:14;;;;;;;2.38;1.77;;;8.20;99.90;;;;;;6179581;23;20076;-67
2023/12/20 14:08:00;;;;;;;3.50;2.00;;;8.20;99.90;;;;;;6181939;23;20044;-67
2023/12/20 14:10:46;;;;;;;3.30;1.63;;;8.20;99.90;;;;;;6182307;23;20498;-66
2023/12/20 14:13:32;;;;;;;4.00;1.73;;;8.10;99.90;;;;;;6182350;23;20339;-67
2023/12/20 14:16:18;;;;;;;3.88;1.58;;;8.00;99.90;;;;;;6180448;23;20016;-67
2023/12/20 14:19:09;;;;;;;2.08;1.52;;;7.90;99.90;;;;;;6179324;23;20088;-66
2023/12/20 14:21:55;;;;;;;3.28;1.50;;;7.90;99.90;;;;;;6169446;23;20064;-66
2023/12/20 14:24:41;;;;;;;2.30;1.20;;;7.90;99.90;;;;;;6181565;23;20009;-67
2023/12/20 14:27:27;;;;;;;2.60;1.45;;;7.90;99.90;;;;;;6181651;23;20063;-67
2023/12/20 14:30:14;;;;;;;1.98;1.23;;;7.80;99.90;;;;;;6179715;23;20477;-67
2023/12/20 14:33:00;;;;;;;2.40;0.98;;;7.80;99.90;;;;;;6179444;23;20024;-67
2023/12/20 14:35:46;;;;;;;1.50;1.10;;;7.70;99.90;;;;;;6180821;23;20128;-66
2023/12/20 14:38:32;;;;;;;4.25;1.33;;;7.70;99.90;;;;;;6158355;23;20095;-67